Coldstream, Victoria

9:01 AM AEST on August 29, 2015 (GMT +1000)
Mount Evelyn | | Change Station
CLOSE
Current Station
Personal Weather Station
Location: Mount Evelyn, VICTORIA
Elevation: 650 ft
Nearby Weather Stations

Elev 650 ft 37.79 °S, 145.37 °E | Updated 4 seconds ago

Mostly Cloudy
Mostly Cloudy
42.3 °F
Feels Like 42 °F
N
0.0
Wind Variable Wind from SSW
Gusts 0.0 mph

Today
High -- | Low -- °F
--% Chance of Precip.
Yesterday
High -- | Low -- °F
Precip. -- in
6:45 AM 5:54 PM
Waxing Gibbous, 99% visible
Pressure 30.33 in
Visibility 6.2 miles
Clouds Few 2500 ft
Mostly Cloudy 4000 ft
Windchill 42 °F
Dew Point 40 °F
Humidity 93%
Rainfall 0.00 in
Snow Depth Not available.
UV 1.0 out of 12
Pollen Not available.
Air Quality Not available.
Flu Activity Not available.
METAR YMML 282230Z 25010KT 9999 FEW025 BKN040 06/01 Q1027 NOSIG
Pressure 30.33 in
Visibility 6.2 miles
Clouds Few 2500 ft
Mostly Cloudy 4000 ft
Windchill 42 °F
Dew Point 40 °F
Humidity 93%
Rainfall 0.00 in
Snow Depth Not available.
UV 1.0 out of 12
Pollen Not available.
Air Quality Not available.
Flu Activity Not available.
METAR YMML 282230Z 25010KT 9999 FEW025 BKN040 06/01 Q1027 NOSIG

10-Day Weather Forecast

×

Almanac

Astronomy

Aug. 29, 2015 Rise Set
Actual Time
Civil Twilight
Nautical Twilight
Astronomical Twilight
Moon
Length of Visible Light
Length of Day
Tomorrow will be .
, % of the Moon is Illuminated

Today's Extremes

Country Highs Country Lows

Community

WunderPhotos

Upload Photos

1,850,519 photos uploaded!

WunderBlogs® & News

Nearby

Air Quality

  Air Quality AQ Index Pollutant
Not available.

Snow Depth

Station Depth Elevation

Earthquake Activity

City Distance Mag. Time & Date
Minimum magnitude displayed is 2.5.

Coastal Water Temperatures

Place Temperature

Stations

Nearby Weather Stations

Station Location Temp. Windchill Dew Point Humidity Wind Precip. Elev Updated Type